Metar z pełnej godziny Komunikat METAR ze strony awiacja.imgw.pl Metar G00 EPPO METAR EPPO 271300Z 11007KT 5000 BR BKN006 02/00 Q0995 =